Time;durP1;ratioP1;P1;durP2;ratioP2;P2;SDS_P1;SDS_P2;PMS_P1;PMS_P2;Temp;Humidity;BMP_temperature;BMP_pressure;BME280_temperature;BME280_humidity;BME280_pressure;Samples;Min_cycle;Max_cycle;Signal;HPM_P1;HPM_P2
2023/06/16 05:10:26;;;;;;;;;;;;;;;6.39;100.00;99743.84;6159640;23;19971;-80
2023/06/16 05:12:51;;;;;;;;;;;;;;;6.39;100.00;99755.22;6157994;23;19924;-81
2023/06/16 05:15:17;;;;;;;;;;;;;;;6.39;100.00;99751.72;6185574;23;19922;-81
2023/06/16 05:17:42;;;;;;;;;;;;;;;6.38;100.00;99756.09;6185303;23;20378;-81
2023/06/16 05:20:08;;;;;;;;;;;;;;;6.41;100.00;99753.41;6185320;23;20375;-82
2023/06/16 05:22:33;;;;;;;;;;;;;;;6.42;100.00;99756.91;6158864;23;19958;-83
2023/06/16 05:24:58;;;;;;;;;;;;;;;6.43;100.00;99748.09;6184398;23;19916;-83
2023/06/16 05:27:24;;;;;;;;;;;;;;;6.45;100.00;99754.22;6185254;23;19917;-82
2023/06/16 05:29:50;;;;;;;;;;;;;;;6.43;100.00;99753.34;6158713;23;20236;-82
2023/06/16 05:32:15;;;;;;;;;;;;;;;6.44;100.00;99757.72;6185251;23;19912;-82
2023/06/16 05:34:41;;;;;;;;;;;;;;;6.47;100.00;99763.78;6185292;23;19935;-82
2023/06/16 05:37:06;;;;;;;;;;;;;;;6.50;100.00;99774.22;6158730;23;19954;-83
2023/06/16 05:39:31;;;;;;;;;;;;;;;6.47;100.00;99774.31;6183173;23;19920;-83
2023/06/16 05:41:56;;;;;;;;;;;;;;;6.54;100.00;99772.38;6185078;23;19912;-82
2023/06/16 05:44:22;;;;;;;;;;;;;;;6.54;100.00;99775.00;6158794;23;19935;-82
2023/06/16 05:46:47;;;;;;;;;;;;;;;6.49;100.00;99779.53;6185021;23;20292;-82
2023/06/16 05:49:12;;;;;;;;;;;;;;;6.48;100.00;99768.13;6185087;23;19922;-82
2023/06/16 05:51:37;;;;;;;;;;;;;;;6.48;100.00;99768.13;6158632;23;19912;-82
2023/06/16 05:54:03;;;;;;;;;;;;;;;6.49;100.00;99769.00;6184911;23;19959;-82
2023/06/16 05:56:28;;;;;;;;;;;;;;;6.47;100.00;99776.94;6183347;23;19919;-82
2023/06/16 05:58:53;;;;;;;;;;;;;;;6.51;100.00;99777.72;6158737;23;19916;-82
2023/06/16 06:01:18;;;;;;;;;;;;;;;6.50;100.00;99776.00;6185059;23;19919;-81
2023/06/16 06:03:47;;;;;;;;;;;;;;;6.46;100.00;99784.88;6184834;23;19939;-82
2023/06/16 06:06:13;;;;;;;;;;;;;;;6.51;100.00;99782.97;6158600;23;20217;-82
2023/06/16 06:08:38;;;;;;;;;;;;;;;6.54;100.00;99781.16;6184628;23;19947;-83
2023/06/16 06:11:06;;;;;;;;;;;;;;;6.50;100.00;99781.25;6183435;23;19928;-85
2023/06/16 06:13:31;;;;;;;;;;;;;;;6.48;100.00;99781.31;6184863;23;19916;-82
2023/06/16 06:15:57;;;;;;;;;;;;;;;6.47;100.00;99783.97;6185080;23;19920;-81
2023/06/16 06:18:23;;;;;;;;;;;;;;;6.49;100.00;99787.41;6184808;23;19913;-82
2023/06/16 06:20:49;;;;;;;;;;;;;;;6.50;100.00;99783.91;6158404;23;19916;-81
2023/06/16 06:23:14;;;;;;;;;;;;;;;6.51;100.00;99786.50;6184684;23;19912;-81
2023/06/16 06:25:40;;;;;;;;;;;;;;;6.51;100.00;99786.50;6183082;23;19987;-81
2023/06/16 06:28:06;;;;;;;;;;;;;;;6.54;100.00;99798.69;6185103;23;19916;-81
2023/06/16 06:30:31;;;;;;;;;;;;;;;6.58;100.00;99800.34;6158331;23;19959;-81
2023/06/16 06:32:59;;;;;;;;;;;;;;;6.55;100.00;99797.78;6184636;23;19916;-81
2023/06/16 06:35:25;;;;;;;;;;;;;;;6.55;100.00;99803.91;6158464;23;19912;-81
2023/06/16 06:37:50;;;;;;;;;;;;;;;6.54;100.00;99803.94;6184562;23;20363;-81
2023/06/16 06:40:15;;;;;;;;;;;;;;;6.55;100.00;99806.56;6183184;23;19916;-82
2023/06/16 06:42:41;;;;;;;;;;;;;;;6.53;100.00;99813.63;6158142;23;19947;-81
2023/06/16 06:45:08;;;;;;;;;;;;;;;6.54;100.00;99810.09;6184702;23;19970;-82
2023/06/16 06:47:33;;;;;;;;;;;;;;;6.54;100.00;99809.22;6185037;23;20232;-82
2023/06/16 07:55:55;;;;;;;;;;;;;;;6.55;100.00;99805.69;6154103;23;19924;-81
2023/06/16 07:58:22;;;;;;;;;;;;;;;6.57;100.00;99797.75;6154155;23;19920;-81
2023/06/16 08:00:47;;;;;;;;;;;;;;;6.56;100.00;99802.16;6154458;23;19913;-82
2023/06/16 08:03:12;;;;;;;;;;;;;;;6.58;100.00;99795.09;6156462;23;19916;-82
2023/06/16 08:05:38;;;;;;;;;;;;;;;6.59;100.00;99790.66;6156309;23;19916;-81
2023/06/16 08:08:03;;;;;;;;;;;;;;;6.59;100.00;99796.81;6153382;23;19917;-82
2023/06/16 08:10:28;;;;;;;;;;;;;;;6.60;100.00;99795.91;6156377;23;20218;-82
2023/06/16 08:12:53;;;;;;;;;;;;;;;6.58;100.00;99788.97;6156245;23;19916;-81
2023/06/16 08:15:20;;;;;;;;;;;;;;;6.60;100.00;99793.25;6155733;23;20284;-82
2023/06/16 08:17:45;;;;;;;;;;;;;;;6.61;100.00;99786.25;6155837;23;19954;-82
2023/06/16 08:20:11;;;;;;;;;;;;;;;6.60;100.00;99787.16;6129367;23;19988;-82
2023/06/16 08:22:36;;;;;;;;;;;;;;;6.60;100.00;99790.63;6154152;23;19913;-82
2023/06/16 08:25:02;;;;;;;;;;;;;;;6.61;100.00;99778.34;6155814;23;19913;-82
2023/06/16 08:27:27;;;;;;;;;;;;;;;6.60;100.00;99784.50;6131250;23;19916;-82
2023/06/16 08:29:53;;;;;;;;;;;;;;;6.59;100.00;99778.41;6155881;23;19913;-83
2023/06/16 08:32:19;;;;;;;;;;;;;;;6.62;100.00;99775.69;6155584;23;20317;-82
2023/06/16 08:34:44;;;;;;;;;;;;;;;6.58;100.00;99781.06;6129923;23;19917;-82
2023/06/16 08:37:09;;;;;;;;;;;;;;;6.59;100.00;99775.75;6153669;23;19920;-83
2023/06/16 08:39:35;;;;;;;;;;;;;;;6.57;100.00;99774.91;6155358;23;19917;-83
2023/06/16 08:42:01;;;;;;;;;;;;;;;6.58;100.00;99778.44;6129797;23;19920;-82
2023/06/16 08:44:26;;;;;;;;;;;;;;;6.60;100.00;99777.47;6154976;23;19963;-82
2023/06/16 08:46:52;;;;;;;;;;;;;;;6.63;100.00;99776.53;6155999;23;19919;-82
2023/06/16 08:49:18;;;;;;;;;;;;;;;6.62;100.00;99770.41;6128788;23;19913;-82
2023/06/16 08:51:47;;;;;;;;;;;;;;;6.58;100.00;99774.03;6153243;23;20000;-82
2023/06/16 08:54:13;;;;;;;;;;;;;;;6.62;100.00;99774.78;6165126;23;19951;-84
2023/06/16 08:56:39;;;;;;;;;;;;;;;6.63;100.00;99772.13;6185452;23;19916;-84
2023/06/16 08:59:08;;;;;;;;;;;;;;;6.62;100.00;99769.53;6184871;23;20370;-84
2023/06/16 09:01:33;;;;;;;;;;;;;;;6.61;100.00;99773.94;6159580;23;20272;-84
2023/06/16 09:03:59;;;;;;;;;;;;;;;6.63;100.00;99773.91;6185798;23;19943;-83
2023/06/16 09:06:27;;;;;;;;;;;;;;;6.63;100.00;99766.84;6183676;23;20024;-83
2023/06/16 09:08:55;;;;;;;;;;;;;;;6.63;100.00;99772.13;6184980;23;20040;-82
2023/06/16 09:11:24;;;;;;;;;;;;;;;6.67;100.00;99767.63;6185370;23;19966;-84
2023/06/16 09:13:51;;;;;;;;;;;;;;;6.67;100.00;99768.50;6184515;23;20002;-88
2023/06/16 09:16:17;;;;;;;;;;;;;;;6.66;100.00;99765.91;6184511;23;19916;-82
2023/06/16 09:18:44;;;;;;;;;;;;;;;6.67;100.00;99765.88;6159100;23;19978;-84
2023/06/16 09:21:11;;;;;;;;;;;;;;;6.66;100.00;99760.66;6184844;23;19948;-82
2023/06/16 09:23:36;;;;;;;;;;;;;;;6.69;100.00;99763.22;6157669;23;19958;-82
2023/06/16 09:26:22;;;;;;;;;;;;;;;6.72;100.00;99757.84;6185238;23;19963;-82
2023/06/16 09:28:47;;;;;;;;;;;;;;;6.69;100.00;99766.69;6184042;23;20351;-81
2023/06/16 09:31:15;;;;;;;;;;;;;;;6.69;100.00;99761.44;6184697;23;19923;-83
2023/06/16 09:33:40;;;;;;;;;;;;;;;6.64;100.00;99760.69;6184560;23;19916;-81
2023/06/16 09:36:07;;;;;;;;;;;;;;;6.65;100.00;99764.19;6184788;23;19912;-82
2023/06/16 09:38:36;;;;;;;;;;;;;;;6.65;100.00;99757.16;6183125;23;19912;-81
2023/06/16 09:41:09;;;;;;;;;;;;;;;6.65;100.00;99754.53;6157099;23;19978;-82
2023/06/16 09:43:35;;;;;;;;;;;;;;;6.70;100.00;99752.63;6185090;23;20282;-81
2023/06/16 09:46:00;;;;;;;;;;;;;;;6.70;100.00;99750.00;6184643;23;19987;-81
2023/06/16 09:48:26;;;;;;;;;;;;;;;6.70;100.00;99747.38;6185393;23;19932;-81
2023/06/16 09:50:53;;;;;;;;;;;;;;;6.75;100.00;99755.16;6184380;23;19916;-82
2023/06/16 09:53:21;;;;;;;;;;;;;;;6.71;100.00;99750.84;6183578;23;20399;-82
2023/06/16 09:55:46;;;;;;;;;;;;;;;6.71;100.00;99748.22;6184925;23;19924;-81
2023/06/16 09:58:12;;;;;;;;;;;;;;;6.73;100.00;99747.28;6183455;23;20291;-80
2023/06/16 10:00:37;;;;;;;;;;;;;;;6.76;100.00;99746.31;6185081;23;20232;-81
2023/06/16 10:03:07;;;;;;;;;;;;;;;6.85;100.00;99761.88;6157815;23;19920;-81
2023/06/16 10:05:34;;;;;;;;;;;;;;;6.87;100.00;99764.47;6184526;23;20366;-81
2023/06/16 10:08:02;;;;;;;;;;;;;;;6.78;100.00;99756.81;6183517;23;19940;-81
2023/06/16 10:10:30;;;;;;;;;;;;;;;6.77;100.00;99757.75;6158615;23;20324;-81
2023/06/16 10:12:56;;;;;;;;;;;;;;;6.76;100.00;99753.38;6184825;23;19913;-81
2023/06/16 10:15:23;;;;;;;;;;;;;;;6.73;100.00;99749.03;6184584;23;19912;-82
2023/06/16 10:17:49;;;;;;;;;;;;;;;6.73;100.00;99747.28;6184119;23;19912;-81
2023/06/16 10:20:16;;;;;;;;;;;;;;;6.73;100.00;99752.56;6159546;23;20454;-81
2023/06/16 10:22:42;;;;;;;;;;;;;;;6.76;100.00;99741.06;6183095;23;19931;-81
2023/06/16 10:25:07;;;;;;;;;;;;;;;6.72;100.00;99742.91;6184919;23;20308;-80
2023/06/16 10:27:33;;;;;;;;;;;;;;;6.78;100.00;99743.63;6158588;23;19920;-81
2023/06/16 10:30:01;;;;;;;;;;;;;;;6.74;100.00;99734.97;6184366;23;19912;-81
2023/06/16 10:32:26;;;;;;;;;;;;;;;6.78;100.00;99748.91;6184841;23;19912;-82
2023/06/16 10:34:56;;;;;;;;;;;;;;;6.74;100.00;99740.25;6158506;23;19995;-83
2023/06/16 10:37:22;;;;;;;;;;;;;;;6.76;100.00;99737.56;6183454;23;19908;-82
2023/06/16 10:39:48;;;;;;;;;;;;;;;6.73;100.00;99735.88;6184720;23;19912;-78
2023/06/16 10:42:13;;;;;;;;;;;;;;;6.72;100.00;99731.53;6158634;23;19923;-80
2023/06/16 10:44:39;;;;;;;;;;;;;;;6.75;100.00;99728.81;6184425;23;19987;-82
2023/06/16 10:47:05;;;;;;;;;;;;;;;6.77;100.00;99731.41;6184378;23;20344;-80
2023/06/16 10:49:31;;;;;;;;;;;;;;;6.81;100.00;99733.03;6158256;23;19912;-82
2023/06/16 10:51:57;;;;;;;;;;;;;;;6.89;100.00;99726.66;6157111;23;19917;-81
2023/06/16 10:54:31;;;;;;;;;;;;;;;6.81;100.00;99726.00;6183367;23;19926;-81
2023/06/16 10:57:00;;;;;;;;;;;;;;;6.88;100.00;99724.06;6184169;23;19924;-82
2023/06/16 10:59:25;;;;;;;;;;;;;;;6.82;100.00;99716.31;6184698;23;19912;-82
2023/06/16 11:01:54;;;;;;;;;;;;;;;6.82;100.00;99725.06;6184719;23;20378;-82
2023/06/16 11:04:20;;;;;;;;;;;;;;;6.88;100.00;99724.06;6184612;23;19995;-81
2023/06/16 11:07:03;;;;;;;;;;;;;;;6.84;100.00;99720.63;6156052;23;20285;-81
2023/06/16 11:09:31;;;;;;;;;;;;;;;6.78;100.00;99712.03;6184351;23;19969;-81
2023/06/16 11:12:00;;;;;;;;;;;;;;;6.77;100.00;99710.34;6183508;23;19916;-81
2023/06/16 11:14:25;;;;;;;;;;;;;;;6.76;100.00;99711.22;6158616;23;20373;-81
2023/06/16 11:16:51;;;;;;;;;;;;;;;6.77;100.00;99710.34;6184335;23;19959;-81
2023/06/16 11:19:19;;;;;;;;;;;;;;;6.86;100.00;99712.69;6184557;23;19924;-81
2023/06/16 11:21:45;;;;;;;;;;;;;;;6.88;100.00;99719.63;6157203;23;19940;-80
2023/06/16 11:24:11;;;;;;;;;;;;;;;6.77;100.00;99716.44;6184281;23;19919;-80
2023/06/16 11:26:37;;;;;;;;;;;;;;;6.80;100.00;99716.38;6184216;23;19912;-81
2023/06/16 11:29:05;;;;;;;;;;;;;;;6.81;100.00;99715.47;6158781;23;19912;-82
2023/06/16 11:31:31;;;;;;;;;;;;;;;6.77;100.00;99711.19;6183826;23;19912;-81
2023/06/16 11:33:56;;;;;;;;;;;;;;;6.81;100.00;99706.69;6184624;23;20245;-82
2023/06/16 11:36:22;;;;;;;;;;;;;;;6.80;100.00;99707.63;6183079;23;19915;-81
2023/06/16 11:38:51;;;;;;;;;;;;;;;6.83;100.00;99707.50;6186447;23;19918;-81
2023/06/16 11:41:16;;;;;;;;;;;;;;;6.82;100.00;99703.16;6186361;23;19920;-83
2023/06/16 11:43:42;;;;;;;;;;;;;;;6.82;100.00;99703.16;6186372;23;19956;-81
2023/06/16 11:46:07;;;;;;;;;;;;;;;6.80;100.00;99697.09;6160413;23;20271;-82
2023/06/16 11:48:33;;;;;;;;;;;;;;;6.85;100.00;99710.97;6185365;23;19920;-82
2023/06/16 11:50:58;;;;;;;;;;;;;;;6.85;100.00;99703.06;6186460;23;19944;-82
2023/06/16 11:53:23;;;;;;;;;;;;;;;6.83;100.00;99699.59;6157605;23;20272;-82
2023/06/16 11:55:50;;;;;;;;;;;;;;;6.79;100.00;99692.72;6185710;23;19920;-82
2023/06/16 11:58:15;;;;;;;;;;;;;;;6.91;100.00;99703.75;6185946;23;19918;-81
2023/06/16 12:00:41;;;;;;;;;;;;;;;6.86;100.00;99696.88;6159700;23;19947;-81
2023/06/16 12:03:07;;;;;;;;;;;;;;;6.82;100.00;99704.00;6184918;23;19912;-81
2023/06/16 12:05:32;;;;;;;;;;;;;;;6.87;100.00;99695.97;6185290;23;19928;-81
2023/06/16 12:07:57;;;;;;;;;;;;;;;6.94;100.00;99708.06;6158339;23;19913;-82
2023/06/16 12:10:23;;;;;;;;;;;;;;;6.80;100.00;99704.97;6185927;23;19990;-81
2023/06/16 12:12:48;;;;;;;;;;;;;;;6.82;100.00;99697.88;6185511;23;20329;-81
2023/06/16 12:15:18;;;;;;;;;;;;;;;6.87;100.00;99696.84;6159108;23;19916;-81
2023/06/16 12:17:44;;;;;;;;;;;;;;;6.87;100.00;99702.09;6159544;23;19971;-80
2023/06/16 12:20:11;;;;;;;;;;;;;;;6.84;100.00;99701.34;6185845;23;19927;-81
2023/06/16 12:22:39;;;;;;;;;;;;;;;6.84;100.00;99696.06;6184444;23;19913;-81
2023/06/16 12:25:13;;;;;;;;;;;;;;;6.75;100.00;99693.69;6159409;23;20375;-82
2023/06/16 12:27:41;;;;;;;;;;;;;;;6.85;100.00;99697.81;6185815;23;19913;-81
2023/06/16 12:30:07;;;;;;;;;;;;;;;6.76;100.00;99695.44;6185794;23;19919;-82
2023/06/16 12:32:34;;;;;;;;;;;;;;;6.75;100.00;99686.69;6159877;23;19991;-82
2023/06/16 12:34:59;;;;;;;;;;;;;;;6.76;100.00;99684.91;6185860;23;19955;-81
2023/06/16 12:37:25;;;;;;;;;;;;;;;6.72;100.00;99674.44;6183601;23;19912;-81
2023/06/16 12:39:58;;;;;;;;;;;;;;;6.72;100.00;99687.63;6185370;23;19916;-81
2023/06/16 12:42:27;;;;;;;;;;;;;;;6.76;100.00;99683.13;6186771;23;19927;-86
2023/06/16 12:44:53;;;;;;;;;;;;;;;6.73;100.00;99684.09;6159646;23;20190;-81
2023/06/16 12:47:19;;;;;;;;;;;;;;;6.77;100.00;99674.31;6158317;23;19912;-81
2023/06/16 12:49:45;;;;;;;;;;;;;;;6.88;100.00;99671.38;6183488;23;19994;-82
2023/06/16 12:52:11;;;;;;;;;;;;;;;6.85;100.00;99677.59;6183355;23;20276;-82
2023/06/16 12:54:36;;;;;;;;;;;;;;;6.86;100.00;99679.31;6158584;23;19966;-82
2023/06/16 12:57:02;;;;;;;;;;;;;;;6.85;100.00;99676.72;6185051;23;19916;-82
2023/06/16 12:59:28;;;;;;;;;;;;;;;6.82;100.00;99672.41;6185011;23;20341;-82
2023/06/16 13:01:54;;;;;;;;;;;;;;;6.76;100.00;99669.94;6184690;23;19919;-82
2023/06/16 13:04:19;;;;;;;;;;;;;;;6.79;100.00;99675.13;6184703;23;19912;-81
2023/06/16 13:06:44;;;;;;;;;;;;;;;6.72;100.00;99666.56;6183215;23;19923;-81
2023/06/16 13:09:09;;;;;;;;;;;;;;;6.76;100.00;99662.03;6158954;23;19912;-82
2023/06/16 13:11:35;;;;;;;;;;;;;;;6.96;100.00;99665.88;6185330;23;19916;-82
2023/06/16 13:14:01;;;;;;;;;;;;;;;7.02;100.00;99663.94;6158446;23;19912;-82
2023/06/16 13:16:27;;;;;;;;;;;;;;;7.01;100.00;99663.97;6157430;23;20384;-81
2023/06/16 13:18:52;;;;;;;;;;;;;;;7.01;100.00;99664.81;6158457;23;19950;-81
2023/06/16 13:21:17;;;;;;;;;;;;;;;7.02;100.00;99653.38;6184371;23;20317;-82
2023/06/16 13:23:43;;;;;;;;;;;;;;;7.05;100.00;99662.94;6158557;23;19920;-81
2023/06/16 13:26:17;;;;;;;;;;;;;;;7.05;100.00;99655.94;6185231;23;19923;-81
2023/06/16 13:28:42;;;;;;;;;;;;;;;6.97;100.00;99654.41;6185277;23;19916;-81
2023/06/16 13:31:09;;;;;;;;;;;;;;;6.88;100.00;99656.44;6159254;23;19995;-81
2023/06/16 13:33:34;;;;;;;;;;;;;;;6.87;100.00;99649.41;6185607;23;19916;-83
2023/06/16 13:35:59;;;;;;;;;;;;;;;6.83;100.00;99657.47;6185336;23;19913;-82
2023/06/16 13:38:25;;;;;;;;;;;;;;;6.81;100.00;99649.63;6157339;23;19916;-82
2023/06/16 13:40:53;;;;;;;;;;;;;;;6.85;100.00;99645.13;6184995;23;20347;-83
2023/06/16 13:43:19;;;;;;;;;;;;;;;6.81;100.00;99651.38;6185079;23;20300;-83
2023/06/16 13:45:44;;;;;;;;;;;;;;;6.81;100.00;99652.25;6159074;23;19912;-82
2023/06/16 13:48:11;;;;;;;;;;;;;;;6.83;100.00;99642.53;6185096;23;19912;-88
2023/06/16 13:50:36;;;;;;;;;;;;;;;6.81;100.00;99633.81;6185077;23;19920;-83
2023/06/16 13:53:01;;;;;;;;;;;;;;;6.77;100.00;99632.19;6156945;23;20294;-82
2023/06/16 13:55:26;;;;;;;;;;;;;;;6.79;100.00;99634.78;6184959;23;19916;-81
2023/06/16 13:57:54;;;;;;;;;;;;;;;6.84;100.00;99638.13;6185566;23;20299;-81
2023/06/16 14:00:19;;;;;;;;;;;;;;;6.81;100.00;99630.31;6185004;23;19916;-81
2023/06/16 14:02:44;;;;;;;;;;;;;;;6.86;100.00;99625.75;6158651;23;20324;-80
2023/06/16 14:05:10;;;;;;;;;;;;;;;6.84;100.00;99619.69;6185317;23;19916;-82
2023/06/16 14:07:35;;;;;;;;;;;;;;;6.86;100.00;99628.41;6183295;23;19987;-81
2023/06/16 14:10:00;;;;;;;;;;;;;;;6.95;100.00;99622.00;6184901;23;19923;-81
2023/06/16 14:12:26;;;;;;;;;;;;;;;6.87;100.00;99617.81;6184877;23;20248;-81
2023/06/16 14:14:51;;;;;;;;;;;;;;;6.86;100.00;99624.00;6184977;23;19912;-81
2023/06/16 14:17:16;;;;;;;;;;;;;;;6.86;100.00;99616.09;6184798;23;19912;-81
2023/06/16 14:19:41;;;;;;;;;;;;;;;6.87;100.00;99615.19;6184704;23;20054;-80
2023/06/16 14:22:06;;;;;;;;;;;;;;;6.83;100.00;99607.41;6156932;23;19912;-81
2023/06/16 14:24:32;;;;;;;;;;;;;;;6.84;100.00;99610.00;6184656;23;19991;-82
2023/06/16 14:26:57;;;;;;;;;;;;;;;6.83;100.00;99610.06;6184901;23;19919;-81
2023/06/16 14:29:22;;;;;;;;;;;;;;;6.84;100.00;99596.84;6158479;23;19920;-82
2023/06/16 14:31:48;;;;;;;;;;;;;;;6.91;100.00;99600.16;6184903;23;19912;-81
2023/06/16 14:34:13;;;;;;;;;;;;;;;6.89;100.00;99607.22;6185104;23;19948;-82
2023/06/16 14:36:38;;;;;;;;;;;;;;;6.85;100.00;99606.47;6156739;23;19916;-81
2023/06/16 14:39:04;;;;;;;;;;;;;;;6.78;100.00;99593.53;6184436;23;19912;-81
2023/06/16 14:41:29;;;;;;;;;;;;;;;6.77;100.00;99589.19;6184988;23;19912;-81
2023/06/16 14:43:56;;;;;;;;;;;;;;;6.80;100.00;99599.63;6184641;23;19920;-81
2023/06/16 14:46:22;;;;;;;;;;;;;;;6.82;100.00;99596.03;6184768;23;19918;-81
2023/06/16 14:48:47;;;;;;;;;;;;;;;6.81;100.00;99596.97;6184553;23;19919;-81
2023/06/16 14:51:12;;;;;;;;;;;;;;;6.83;100.00;99595.13;6158799;23;19948;-81
2023/06/16 14:53:38;;;;;;;;;;;;;;;6.86;100.00;99599.41;6182605;23;20300;-84
2023/06/16 14:56:03;;;;;;;;;;;;;;;6.85;100.00;99597.72;6184548;23;19994;-82
2023/06/16 14:58:28;;;;;;;;;;;;;;;6.79;100.00;99593.47;6158197;23;19916;-81
2023/06/16 15:00:56;;;;;;;;;;;;;;;6.86;100.00;99592.41;6184584;23;19916;-81
2023/06/16 15:03:22;;;;;;;;;;;;;;;6.83;100.00;99587.22;6184533;23;20003;-81
2023/06/16 15:05:47;;;;;;;;;;;;;;;6.87;100.00;99594.09;6158479;23;20321;-81
2023/06/16 15:08:12;;;;;;;;;;;;;;;6.82;100.00;99592.53;6182755;23;19916;-82
2023/06/16 15:10:37;;;;;;;;;;;;;;;6.86;100.00;99589.78;6184625;23;20047;-81
2023/06/16 15:13:03;;;;;;;;;;;;;;;6.87;100.00;99585.34;6160166;23;20242;-81
2023/06/16 15:15:28;;;;;;;;;;;;;;;6.83;100.00;99583.72;6160014;23;19994;-82
2023/06/16 15:17:53;;;;;;;;;;;;;;;6.81;100.00;99580.28;6186462;23;19912;-82
2023/06/16 15:20:18;;;;;;;;;;;;;;;6.80;100.00;99575.94;6160241;23;19912;-82
2023/06/16 15:22:44;;;;;;;;;;;;;;;6.82;100.00;99569.69;6184767;23;20411;-82
2023/06/16 15:25:09;;;;;;;;;;;;;;;6.81;100.00;99569.75;6186405;23;20249;-82
2023/06/16 15:27:37;;;;;;;;;;;;;;;6.80;100.00;99573.31;6160045;23;19994;-82
2023/06/16 15:30:03;;;;;;;;;;;;;;;6.85;100.00;99568.75;6186602;23;19920;-83
2023/06/16 15:32:28;;;;;;;;;;;;;;;6.85;100.00;99574.00;6160509;23;19917;-82
2023/06/16 15:34:53;;;;;;;;;;;;;;;6.81;100.00;99575.00;6186532;23;20295;-83
2023/06/16 15:37:19;;;;;;;;;;;;;;;6.77;100.00;99568.13;6184839;23;19995;-80
2023/06/16 15:39:44;;;;;;;;;;;;;;;6.77;100.00;99557.59;6186289;23;20275;-82
2023/06/16 15:42:09;;;;;;;;;;;;;;;6.78;100.00;99559.28;6186213;23;19920;-82
2023/06/16 15:44:35;;;;;;;;;;;;;;;6.80;100.00;99558.34;6186313;23;19908;-82
2023/06/16 15:47:00;;;;;;;;;;;;;;;6.80;100.00;99558.34;6186371;23;19919;-83
2023/06/16 15:49:25;;;;;;;;;;;;;;;6.83;100.00;99560.00;6186702;23;19960;-83
2023/06/16 15:51:50;;;;;;;;;;;;;;;6.81;100.00;99553.94;6185092;23;19983;-81
2023/06/16 15:54:16;;;;;;;;;;;;;;;6.83;100.00;99553.00;6186055;23;19963;-82
2023/06/16 15:56:41;;;;;;;;;;;;;;;6.81;100.00;99546.03;6186512;23;19913;-82
2023/06/16 15:59:08;;;;;;;;;;;;;;;6.81;100.00;99548.66;6186341;23;19920;-81
2023/06/16 16:01:33;;;;;;;;;;;;;;;6.78;100.00;99548.75;6186281;23;19917;-82
2023/06/16 16:03:58;;;;;;;;;;;;;;;6.83;100.00;99546.84;6135539;23;19920;-81
2023/06/16 16:06:24;;;;;;;;;;;;;;;6.83;100.00;99547.72;6184861;23;19912;-82
2023/06/16 16:08:49;;;;;;;;;;;;;;;6.74;100.00;99537.47;6186011;23;19946;-82
2023/06/16 16:11:14;;;;;;;;;;;;;;;6.73;100.00;99538.38;6159821;23;19915;-83
2023/06/16 16:13:39;;;;;;;;;;;;;;;6.75;100.00;99538.31;6185999;23;19943;-82
2023/06/16 16:16:05;;;;;;;;;;;;;;;6.77;100.00;99542.66;6159805;23;19915;-82
2023/06/16 16:18:31;;;;;;;;;;;;;;;6.74;100.00;99532.22;6159997;23;19912;-82
2023/06/16 16:20:56;;;;;;;;;;;;;;;6.75;100.00;99531.31;6186168;23;19912;-83
2023/06/16 16:23:21;;;;;;;;;;;;;;;6.75;100.00;99539.22;6158019;23;19919;-82
2023/06/16 16:25:47;;;;;;;;;;;;;;;6.74;100.00;99537.47;6160009;23;19927;-82
2023/06/16 16:28:12;;;;;;;;;;;;;;;6.73;100.00;99528.72;6160048;23;19925;-82
2023/06/16 16:30:37;;;;;;;;;;;;;;;6.73;100.00;99526.09;6159492;23;20328;-86
2023/06/16 16:33:03;;;;;;;;;;;;;;;6.69;100.00;99529.72;6159896;23;19978;-81
2023/06/16 16:35:28;;;;;;;;;;;;;;;6.69;100.00;99524.44;6159661;23;20331;-82
2023/06/16 16:37:53;;;;;;;;;;;;;;;6.73;100.00;99518.19;6184080;23;19932;-82
2023/06/16 16:40:18;;;;;;;;;;;;;;;6.70;100.00;99515.66;6159566;23;20376;-82
2023/06/16 16:42:44;;;;;;;;;;;;;;;6.70;100.00;99526.19;6185632;23;19912;-83
2023/06/16 16:45:10;;;;;;;;;;;;;;;6.77;100.00;99516.31;6159893;23;19959;-82
2023/06/16 16:47:35;;;;;;;;;;;;;;;6.72;100.00;99529.63;6186174;23;19919;-82
2023/06/16 16:50:03;;;;;;;;;;;;;;;6.75;100.00;99526.03;6185949;23;19916;-82
2023/06/16 16:52:28;;;;;;;;;;;;;;;6.71;100.00;99521.75;6184513;23;20333;-80
2023/06/16 16:54:53;;;;;;;;;;;;;;;6.73;100.00;99519.94;6185378;23;19995;-83
2023/06/16 16:57:19;;;;;;;;;;;;;;;6.69;100.00;99523.59;6185859;23;19912;-83
2023/06/16 16:59:44;;;;;;;;;;;;;;;6.67;100.00;99525.38;6185554;23;19916;-82
2023/06/16 17:02:09;;;;;;;;;;;;;;;6.71;100.00;99519.97;6185809;23;19924;-82
2023/06/16 17:04:34;;;;;;;;;;;;;;;6.75;100.00;99525.16;6185514;23;20400;-82
2023/06/16 17:07:00;;;;;;;;;;;;;;;6.69;100.00;99529.72;6183951;23;19958;-86
2023/06/16 17:09:25;;;;;;;;;;;;;;;6.72;100.00;99524.34;6185394;23;19923;-82
2023/06/16 17:11:50;;;;;;;;;;;;;;;6.73;100.00;99519.94;6185968;23;20263;-82
2023/06/16 17:14:16;;;;;;;;;;;;;;;6.75;100.00;99527.78;6185715;23;19952;-82
2023/06/16 17:16:43;;;;;;;;;;;;;;;6.74;100.00;99529.56;6184198;23;20334;-81
2023/06/16 17:19:08;;;;;;;;;;;;;;;6.77;100.00;99534.75;6185295;23;20374;-80
2023/06/16 17:21:34;;;;;;;;;;;;;;;6.85;100.00;99523.97;6183101;23;19916;-82
2023/06/16 17:23:59;;;;;;;;;;;;;;;6.75;100.00;99512.88;6158475;23;19916;-81
2023/06/16 17:26:26;;;;;;;;;;;;;;;6.75;100.00;99525.16;6183961;23;20002;-82
2023/06/16 17:28:51;;;;;;;;;;;;;;;6.73;100.00;99526.09;6185370;23;19912;-81
2023/06/16 17:31:16;;;;;;;;;;;;;;;6.74;100.00;99526.94;6159086;23;19922;-83
2023/06/16 17:33:41;;;;;;;;;;;;;;;6.76;100.00;99533.00;6184907;23;20325;-82
2023/06/16 17:36:07;;;;;;;;;;;;;;;6.77;100.00;99531.25;6184423;23;19912;-79
2023/06/16 17:38:32;;;;;;;;;;;;;;;6.73;100.00;99528.72;6183203;23;19924;-85
2023/06/16 17:40:57;;;;;;;;;;;;;;;6.76;100.00;99522.47;6184868;23;20321;-83
2023/06/16 17:43:23;;;;;;;;;;;;;;;6.77;100.00;99520.72;6184464;23;19916;-82
2023/06/16 17:45:49;;;;;;;;;;;;;;;6.77;100.00;99531.25;6158299;23;20411;-82
2023/06/16 17:48:15;;;;;;;;;;;;;;;6.73;100.00;99526.09;6185253;23;19946;-82
2023/06/16 17:50:40;;;;;;;;;;;;;;;6.73;100.00;99530.47;6184592;23;19924;-85
2023/06/16 17:53:06;;;;;;;;;;;;;;;6.73;100.00;99531.34;6157467;23;19920;-82
2023/06/16 17:55:31;;;;;;;;;;;;;;;6.73;100.00;99525.19;6158681;23;20232;-80
2023/06/16 17:57:56;;;;;;;;;;;;;;;6.82;100.00;99522.28;6184938;23;19931;-81
2023/06/16 18:00:21;;;;;;;;;;;;;;;6.95;100.00;99520.13;6184900;23;19916;-82
2023/06/16 18:02:47;;;;;;;;;;;;;;;6.93;100.00;99521.94;6185116;23;19923;-81
2023/06/16 18:05:12;;;;;;;;;;;;;;;6.92;100.00;99528.13;6185221;23;19919;-81
2023/06/16 18:07:38;;;;;;;;;;;;;;;6.87;100.00;99523.00;6183562;23;20280;-81
2023/06/16 18:10:04;;;;;;;;;;;;;;;6.81;100.00;99533.75;6185137;23;19923;-81
2023/06/16 18:12:30;;;;;;;;;;;;;;;6.74;100.00;99532.22;6185031;23;20240;-81
2023/06/16 18:14:55;;;;;;;;;;;;;;;6.68;100.00;99527.97;6184997;23;19912;-82
2023/06/16 18:17:20;;;;;;;;;;;;;;;6.72;100.00;99528.75;6183882;23;19993;-82
2023/06/16 18:19:46;;;;;;;;;;;;;;;6.73;100.00;99526.09;6158435;23;19918;-81
2023/06/16 18:22:11;;;;;;;;;;;;;;;6.75;100.00;99527.78;6182985;23;19912;-81
2023/06/16 18:24:36;;;;;;;;;;;;;;;6.73;100.00;99534.00;6183975;23;19920;-81
2023/06/16 18:27:02;;;;;;;;;;;;;;;6.72;100.00;99529.63;6184799;23;20317;-81
2023/06/16 18:29:27;;;;;;;;;;;;;;;6.76;100.00;99532.16;6158807;23;20016;-81
2023/06/16 18:31:52;;;;;;;;;;;;;;;6.75;100.00;99533.06;6182283;23;19916;-83
2023/06/16 18:34:18;;;;;;;;;;;;;;;6.80;100.00;99532.00;6182735;23;19944;-82
2023/06/16 18:36:45;;;;;;;;;;;;;;;6.81;100.00;99535.50;6156709;23;19916;-82
2023/06/16 18:39:13;;;;;;;;;;;;;;;6.93;100.00;99526.38;6183243;23;19916;-83
2023/06/16 18:41:38;;;;;;;;;;;;;;;6.96;100.00;99532.41;6157884;23;19955;-82
2023/06/16 18:44:04;;;;;;;;;;;;;;;6.97;100.00;99535.88;6157094;23;19931;-83
2023/06/16 18:46:29;;;;;;;;;;;;;;;6.77;100.00;99531.25;6158013;23;19920;-81
2023/06/16 18:48:54;;;;;;;;;;;;;;;6.74;100.00;99526.94;6158156;23;19908;-82
2023/06/16 18:51:20;;;;;;;;;;;;;;;6.76;100.00;99535.66;6182947;23;19916;-81
2023/06/16 18:53:45;;;;;;;;;;;;;;;6.77;100.00;99532.13;6185411;23;19912;-82
2023/06/16 18:56:10;;;;;;;;;;;;;;;6.80;100.00;99531.16;6157533;23;20308;-83